createdAt,value
2019-03-10T17:00:27.449Z,56158.09
2019-03-10T17:02:58.026Z,56149.86
2019-03-10T17:05:28.478Z,56164.25
2019-03-10T17:07:59.014Z,56221.84
2019-03-10T17:17:00.145Z,56181.73
2019-03-10T17:19:30.789Z,56187.90
2019-03-10T17:22:01.289Z,56193.05
2019-03-10T17:24:32.303Z,56151.91
2019-03-10T17:27:04.884Z,56162.20
2019-03-10T17:29:36.025Z,56199.21
2019-03-10T17:32:06.583Z,56152.94
2019-03-10T17:34:37.112Z,56182.76
2019-03-10T17:37:07.556Z,56218.75
2019-03-10T17:39:38.423Z,56201.27
2019-03-10T17:42:08.823Z,56143.69
2019-03-10T17:44:41.458Z,56181.73
2019-03-10T17:47:12.290Z,56225.95
2019-03-10T17:49:43.088Z,56203.33
2019-03-10T17:52:14.814Z,56189.96
2019-03-10T17:54:45.851Z,56181.73
2019-03-10T17:57:16.329Z,56210.52
2019-03-10T17:59:46.931Z,56186.87
2019-03-10T18:02:17.953Z,56218.75
2019-03-10T18:04:48.488Z,56226.98
2019-03-10T18:07:18.874Z,56213.61
2019-03-10T18:09:49.967Z,56164.25
2019-03-10T18:12:20.456Z,56231.09
2019-03-10T18:14:50.943Z,56218.75
2019-03-10T18:17:21.327Z,56202.30
2019-03-10T18:19:52.229Z,56209.50
2019-03-10T18:22:22.857Z,56218.75
2019-03-10T18:24:53.402Z,56213.61
2019-03-10T18:27:23.980Z,56231.09
2019-03-10T18:29:56.572Z,56230.06
2019-03-10T18:32:27.580Z,56250.63
2019-03-10T18:34:58.900Z,56232.12
2019-03-10T18:37:32.869Z,56238.29
2019-03-10T18:40:01.814Z,56261.94
2019-03-10T18:42:33.199Z,56245.49
2019-03-10T18:45:04.216Z,56248.57
2019-03-10T18:47:34.714Z,56232.12
2019-03-10T18:50:06.287Z,56243.43
2019-03-10T18:52:36.836Z,56292.79
2019-03-10T18:55:08.373Z,56244.46
2019-03-10T18:57:39.753Z,56269.14
2019-03-10T19:00:17.923Z,56242.40
2019-03-10T19:02:48.487Z,56256.80
2019-03-10T19:05:19.961Z,56271.20
2019-03-10T19:07:50.633Z,56265.03
2019-03-10T19:10:21.708Z,56255.77
2019-03-10T19:12:52.580Z,56250.63
2019-03-10T19:15:22.989Z,56236.23
2019-03-10T19:17:53.811Z,56249.60
2019-03-10T19:20:24.294Z,56254.74
2019-03-10T19:22:54.961Z,56250.63
2019-03-10T19:25:25.595Z,56236.23
2019-03-10T19:27:56.017Z,56255.77
2019-03-10T19:30:27.015Z,56274.28
2019-03-10T19:35:38.153Z,56262.97
2019-03-10T19:38:08.666Z,56266.05
2019-03-10T19:40:39.192Z,56266.05
2019-03-10T19:43:09.615Z,56242.40
2019-03-10T19:45:40.175Z,56273.25
2019-03-10T19:48:11.000Z,56274.28
2019-03-10T19:50:41.556Z,56295.88
2019-03-10T19:53:12.056Z,56271.20
2019-03-10T19:55:42.478Z,56264.00
2019-03-10T19:58:13.003Z,56242.40
2019-03-10T20:00:43.741Z,56253.71
2019-03-10T20:03:14.525Z,56269.14
2019-03-10T20:05:45.747Z,56269.14
2019-03-10T20:08:18.119Z,56251.66
2019-03-10T20:10:48.483Z,56277.36
2019-03-10T20:13:19.014Z,56255.77
2019-03-10T20:15:49.476Z,56266.05
2019-03-10T20:18:21.041Z,56236.23
2019-03-10T20:20:51.595Z,56232.12
2019-03-10T20:23:22.093Z,56248.57
2019-03-10T20:25:52.546Z,56287.65
2019-03-10T20:28:23.317Z,56259.88
2019-03-10T20:30:53.788Z,56236.23
2019-03-10T20:33:24.241Z,56224.92
2019-03-10T20:35:54.706Z,56257.83
2019-03-10T20:38:25.089Z,56271.20
2019-03-10T20:40:55.536Z,56238.29
2019-03-10T20:43:26.267Z,56246.52
2019-03-10T20:45:56.691Z,56262.97
2019-03-10T20:48:27.657Z,56249.60
2019-03-10T20:50:58.456Z,56297.93
2019-03-10T20:53:30.692Z,56287.65
2019-03-10T20:56:01.475Z,56254.74
2019-03-10T20:58:34.930Z,56238.29
2019-03-10T21:01:05.781Z,56243.43
2019-03-10T21:03:36.468Z,56260.91
2019-03-10T21:06:07.966Z,56232.12
2019-03-10T21:08:39.165Z,56208.47
2019-03-10T21:11:12.311Z,56238.29
2019-03-10T21:13:42.877Z,56262.97
2019-03-10T21:16:13.309Z,56253.71
2019-03-10T21:18:43.753Z,56232.12
2019-03-10T21:21:15.540Z,56250.63
2019-03-10T21:23:46.522Z,56248.57
2019-03-10T21:26:17.035Z,56256.80
2019-03-10T21:28:47.870Z,56248.57
2019-03-10T21:31:18.244Z,56236.23
2019-03-10T21:33:48.706Z,56238.29
2019-03-10T21:36:19.210Z,56252.69
2019-03-10T21:38:49.716Z,56255.77
2019-03-10T21:41:20.386Z,56254.74
2019-03-10T21:43:51.303Z,56268.11
2019-03-10T21:46:22.180Z,56277.36
2019-03-10T21:48:52.890Z,56272.22
2019-03-10T21:51:23.397Z,56262.97
2019-03-10T21:53:53.887Z,56249.60
2019-03-10T21:56:24.323Z,56265.03
2019-03-10T21:58:55.083Z,56223.89
2019-03-10T22:01:25.617Z,56229.04
2019-03-10T22:03:56.933Z,56239.32
2019-03-10T22:06:27.411Z,56246.52
2019-03-10T22:08:57.821Z,56210.52
2019-03-10T22:11:28.537Z,56223.89
2019-03-10T22:13:59.754Z,56244.46
2019-03-10T22:16:30.233Z,56247.54
2019-03-10T22:19:01.067Z,56280.45
2019-03-10T22:21:31.914Z,56187.90
2019-03-10T22:24:03.304Z,56230.06
2019-03-10T22:26:33.977Z,56260.91
2019-03-10T22:29:04.806Z,56261.94
2019-03-10T22:31:35.657Z,56248.57
2019-03-10T22:34:06.250Z,56233.15
2019-03-10T22:36:36.712Z,56215.67
2019-03-10T22:39:08.517Z,56257.83
2019-03-10T22:41:38.927Z,56205.38
2019-03-10T22:44:09.336Z,56218.75
2019-03-10T22:46:40.175Z,56241.37
2019-03-10T22:49:10.581Z,56278.39
2019-03-10T22:51:41.066Z,56250.63
2019-03-10T22:54:11.510Z,56261.94
2019-03-10T22:56:42.346Z,56258.86
2019-03-10T22:59:12.827Z,56244.46
2019-03-10T23:01:43.395Z,56257.83
2019-03-10T23:04:13.880Z,56261.94
2019-03-10T23:06:44.410Z,56260.91
2019-03-10T23:09:15.271Z,56254.74
2019-03-10T23:11:45.835Z,56240.34
2019-03-10T23:14:16.394Z,56252.69
2019-03-10T23:16:46.952Z,56214.64
2019-03-10T23:19:17.465Z,56267.08
2019-03-10T23:21:48.265Z,56265.03
2019-03-10T23:24:18.999Z,56265.03
2019-03-10T23:26:49.401Z,56251.66
2019-03-10T23:29:19.927Z,56211.55
2019-03-10T23:31:50.365Z,56236.23
2019-03-10T23:34:21.078Z,56254.74
2019-03-10T23:36:52.201Z,56253.71
2019-03-10T23:39:22.709Z,56239.32
2019-03-10T23:41:53.267Z,56204.36
2019-03-10T23:44:24.047Z,56217.72
2019-03-10T23:46:54.961Z,56251.66
2019-03-10T23:49:25.343Z,56248.57
2019-03-10T23:51:55.971Z,56232.12
2019-03-10T23:54:26.917Z,56250.63
2019-03-10T23:56:57.577Z,56281.48
2019-03-10T23:59:28.411Z,56259.88
